Time;durP1;ratioP1;P1;durP2;ratioP2;P2;SDS_P1;SDS_P2;PMS_P1;PMS_P2;Temp;Humidity;BMP_temperature;BMP_pressure;BME280_temperature;BME280_humidity;BME280_pressure;Samples;Min_cycle;Max_cycle;Signal;HPM_P1;HPM_P2
2023/07/18 00:00:06;;;;;;;3.17;1.70;;;;;;;;;;4968053;28;25077;-69
2023/07/18 00:02:35;;;;;;;6.95;1.90;;;;;;;;;;4966399;28;25139;-69
2023/07/18 00:05:01;;;;;;;6.50;1.77;;;;;;;;;;4968543;28;25069;-69
2023/07/18 00:07:27;;;;;;;1.80;1.10;;;;;;;;;;4965469;28;25085;-67
2023/07/18 00:09:53;;;;;;;5.82;1.48;;;;;;;;;;4967279;28;25138;-66
2023/07/18 00:12:19;;;;;;;7.13;1.73;;;;;;;;;;4966180;28;25068;-68
2023/07/18 00:14:45;;;;;;;4.85;1.35;;;;;;;;;;4968072;28;25056;-68
2023/07/18 00:17:11;;;;;;;5.82;1.67;;;;;;;;;;4969271;28;25142;-67
2023/07/18 00:19:37;;;;;;;5.45;1.67;;;;;;;;;;4980318;28;25151;-68
2023/07/18 00:22:03;;;;;;;4.15;1.73;;;;;;;;;;4981469;28;25048;-71
2023/07/18 00:24:30;;;;;;;4.95;1.50;;;;;;;;;;4965843;28;25065;-67
2023/07/18 00:26:56;;;;;;;6.03;1.40;;;;;;;;;;4983946;28;25050;-67
2023/07/18 00:29:23;;;;;;;7.55;1.45;;;;;;;;;;4987407;28;25133;-71
2023/07/18 00:31:49;;;;;;;3.35;1.38;;;;;;;;;;4988311;28;25138;-70
2023/07/18 00:34:15;;;;;;;6.18;1.35;;;;;;;;;;4988356;28;25091;-68
2023/07/18 00:36:42;;;;;;;4.38;1.67;;;;;;;;;;4988061;28;25064;-67
2023/07/18 00:39:08;;;;;;;5.85;1.95;;;;;;;;;;4988208;28;25098;-69
2023/07/18 00:41:34;;;;;;;12.27;2.08;;;;;;;;;;4991226;28;25097;-70
2023/07/18 00:44:00;;;;;;;6.70;1.55;;;;;;;;;;4985337;28;25065;-68
2023/07/18 00:46:26;;;;;;;6.90;1.65;;;;;;;;;;4985935;28;25055;-69
2023/07/18 00:48:52;;;;;;;5.55;1.65;;;;;;;;;;4987123;28;25058;-68
2023/07/18 00:51:18;;;;;;;5.97;1.08;;;;;;;;;;4988543;28;25121;-68
2023/07/18 00:53:45;;;;;;;2.28;0.98;;;;;;;;;;4985587;28;25183;-67
2023/07/18 00:56:11;;;;;;;1.77;0.85;;;;;;;;;;4987309;28;25073;-67
2023/07/18 00:58:37;;;;;;;6.28;1.20;;;;;;;;;;4982831;28;25146;-69
2023/07/18 01:01:03;;;;;;;3.00;1.65;;;;;;;;;;4984593;28;25068;-70
2023/07/18 01:03:29;;;;;;;3.83;1.15;;;;;;;;;;4986483;28;25059;-68
2023/07/18 01:05:55;;;;;;;7.82;1.40;;;;;;;;;;4988238;28;25071;-69
2023/07/18 01:08:21;;;;;;;5.13;1.30;;;;;;;;;;4997911;28;25063;-74
2023/07/18 01:10:47;;;;;;;8.15;1.10;;;;;;;;;;5008162;28;25059;-72
2023/07/18 01:13:13;;;;;;;5.57;1.38;;;;;;;;;;5007430;28;25119;-68
2023/07/18 01:15:39;;;;;;;5.43;1.30;;;;;;;;;;5000645;28;25093;-68
2023/07/18 01:18:08;;;;;;;8.68;2.15;;;;;;;;;;4981157;28;25051;-70
2023/07/18 01:20:36;;;;;;;2.78;1.33;;;;;;;;;;4989476;28;25052;-67
2023/07/18 01:23:05;;;;;;;2.97;1.42;;;;;;;;;;4982130;28;25075;-69
2023/07/18 01:25:31;;;;;;;3.67;1.40;;;;;;;;;;4986497;28;25072;-69
2023/07/18 01:27:59;;;;;;;4.97;1.67;;;;;;;;;;4981991;28;25060;-71
2023/07/18 01:30:26;;;;;;;5.90;1.60;;;;;;;;;;4987248;28;25090;-68
2023/07/18 01:32:52;;;;;;;5.05;1.45;;;;;;;;;;4987190;28;25065;-67
2023/07/18 01:35:19;;;;;;;4.32;1.65;;;;;;;;;;4991877;28;25075;-69
2023/07/18 01:37:46;;;;;;;4.60;1.52;;;;;;;;;;4994586;28;25115;-68
2023/07/18 01:40:13;;;;;;;4.38;1.80;;;;;;;;;;4990237;28;25062;-69
2023/07/18 01:42:40;;;;;;;6.13;1.23;;;;;;;;;;4994948;28;25095;-67
2023/07/18 01:45:06;;;;;;;2.63;1.33;;;;;;;;;;4989619;28;25068;-68
2023/07/18 01:47:32;;;;;;;3.63;1.30;;;;;;;;;;4987541;28;25072;-67
2023/07/18 01:49:59;;;;;;;4.05;1.25;;;;;;;;;;4970239;28;25079;-71
2023/07/18 01:52:27;;;;;;;2.05;1.08;;;;;;;;;;4967567;28;25151;-68
2023/07/18 01:54:54;;;;;;;6.38;1.27;;;;;;;;;;4966972;28;25096;-67
2023/07/18 01:57:20;;;;;;;2.83;1.00;;;;;;;;;;4967866;28;25057;-69
2023/07/18 01:59:46;;;;;;;7.20;1.92;;;;;;;;;;4988211;28;25067;-68
2023/07/18 02:02:12;;;;;;;4.18;1.70;;;;;;;;;;4984328;28;25075;-68
2023/07/18 02:04:38;;;;;;;3.03;1.40;;;;;;;;;;4982519;28;25146;-68
2023/07/18 02:07:04;;;;;;;4.80;1.38;;;;;;;;;;4966027;28;25067;-71
2023/07/18 02:09:30;;;;;;;4.68;1.48;;;;;;;;;;4974450;28;25078;-69
2023/07/18 02:11:56;;;;;;;2.92;1.10;;;;;;;;;;4988328;28;25079;-68
2023/07/18 02:14:22;;;;;;;4.05;1.40;;;;;;;;;;4992968;28;25194;-68
2023/07/18 02:16:48;;;;;;;3.78;1.40;;;;;;;;;;4998070;28;25049;-70
2023/07/18 02:19:14;;;;;;;2.55;1.30;;;;;;;;;;4989277;28;25135;-68
2023/07/18 02:21:40;;;;;;;7.18;1.67;;;;;;;;;;4971510;28;25106;-68
2023/07/18 02:24:06;;;;;;;4.00;1.30;;;;;;;;;;4969159;28;25057;-68
2023/07/18 02:26:32;;;;;;;6.35;0.95;;;;;;;;;;4996213;28;25054;-68
2023/07/18 02:28:57;;;;;;;3.03;1.48;;;;;;;;;;4995103;28;25071;-67
2023/07/18 02:31:23;;;;;;;6.68;1.70;;;;;;;;;;4985157;28;25086;-70
2023/07/18 02:33:49;;;;;;;1.45;1.20;;;;;;;;;;4963917;28;25065;-71
2023/07/18 02:36:15;;;;;;;7.22;2.20;;;;;;;;;;4989769;28;25061;-69
2023/07/18 02:38:41;;;;;;;3.28;1.40;;;;;;;;;;4992397;28;25064;-65
2023/07/18 02:41:07;;;;;;;8.05;2.10;;;;;;;;;;4976436;28;25071;-69
2023/07/18 02:43:33;;;;;;;6.60;2.28;;;;;;;;;;4971122;28;25086;-67
2023/07/18 02:45:59;;;;;;;7.25;2.08;;;;;;;;;;4972120;28;25069;-69
2023/07/18 02:48:25;;;;;;;4.72;1.60;;;;;;;;;;4970170;28;25065;-68
2023/07/18 02:50:51;;;;;;;8.20;1.98;;;;;;;;;;4968609;28;25142;-68
2023/07/18 02:53:17;;;;;;;6.03;2.67;;;;;;;;;;4977825;28;25054;-70
2023/07/18 02:55:43;;;;;;;4.85;1.80;;;;;;;;;;5000661;28;25120;-69
2023/07/18 02:58:10;;;;;;;7.40;1.92;;;;;;;;;;4990676;28;25059;-69
2023/07/18 03:00:36;;;;;;;9.45;2.00;;;;;;;;;;4999777;28;25071;-69
2023/07/18 03:03:02;;;;;;;6.80;2.05;;;;;;;;;;5014579;28;25159;-69
2023/07/18 03:05:29;;;;;;;5.30;2.28;;;;;;;;;;4998953;28;25080;-68
2023/07/18 03:07:55;;;;;;;5.20;2.05;;;;;;;;;;4980173;28;25124;-69
2023/07/18 03:10:24;;;;;;;7.68;2.25;;;;;;;;;;4971110;28;25084;-68
2023/07/18 03:12:50;;;;;;;6.47;2.22;;;;;;;;;;4995009;28;25053;-69
2023/07/18 03:15:16;;;;;;;8.77;2.50;;;;;;;;;;4985614;28;25074;-71
2023/07/18 03:17:43;;;;;;;5.18;1.83;;;;;;;;;;4985139;28;25054;-70
2023/07/18 03:20:19;;;;;;;5.25;2.28;;;;;;;;;;4991829;28;25065;-67
2023/07/18 03:22:45;;;;;;;6.75;3.03;;;;;;;;;;5000183;28;25072;-67
2023/07/18 03:25:12;;;;;;;6.97;2.67;;;;;;;;;;4999642;28;25069;-68
2023/07/18 03:27:38;;;;;;;7.53;2.33;;;;;;;;;;5006981;28;25098;-71
2023/07/18 03:30:06;;;;;;;6.82;2.28;;;;;;;;;;4984940;28;25088;-72
2023/07/18 03:32:32;;;;;;;9.00;2.85;;;;;;;;;;4990697;28;25079;-67
2023/07/18 03:34:57;;;;;;;6.18;2.28;;;;;;;;;;4983191;28;25141;-67
2023/07/18 03:37:23;;;;;;;6.18;2.20;;;;;;;;;;4988526;28;25082;-71
2023/07/18 03:39:49;;;;;;;8.30;2.28;;;;;;;;;;4989583;28;25140;-70
2023/07/18 03:42:15;;;;;;;13.18;2.65;;;;;;;;;;4988968;28;25069;-70
2023/07/18 03:44:42;;;;;;;4.15;2.17;;;;;;;;;;4975276;28;25065;-70
2023/07/18 03:47:08;;;;;;;6.32;2.67;;;;;;;;;;4964294;28;25073;-68
2023/07/18 03:49:34;;;;;;;6.95;2.85;;;;;;;;;;4969332;28;25054;-69
2023/07/18 03:52:00;;;;;;;11.02;2.90;;;;;;;;;;4969882;28;25121;-68
2023/07/18 03:54:26;;;;;;;6.82;2.70;;;;;;;;;;4966502;28;25066;-67
2023/07/18 03:56:52;;;;;;;11.20;2.88;;;;;;;;;;4973481;28;25069;-68
2023/07/18 03:59:18;;;;;;;8.25;2.78;;;;;;;;;;4975525;28;25069;-68
2023/07/18 04:01:44;;;;;;;11.48;2.80;;;;;;;;;;4980788;28;25059;-71
2023/07/18 04:04:12;;;;;;;6.40;2.40;;;;;;;;;;4981204;28;25067;-71
2023/07/18 04:06:38;;;;;;;7.40;2.63;;;;;;;;;;4987127;28;25097;-69
2023/07/18 04:09:05;;;;;;;7.72;2.80;;;;;;;;;;4989821;28;25150;-71
2023/07/18 04:11:32;;;;;;;8.13;3.08;;;;;;;;;;4990254;28;25077;-71
2023/07/18 04:13:58;;;;;;;10.23;3.67;;;;;;;;;;4991721;28;25138;-68
2023/07/18 04:16:24;;;;;;;9.73;3.05;;;;;;;;;;4977241;28;25110;-69
2023/07/18 04:18:50;;;;;;;7.40;3.13;;;;;;;;;;4970462;28;25066;-72
2023/07/18 04:21:16;;;;;;;10.32;3.13;;;;;;;;;;4971038;28;25053;-69
2023/07/18 04:23:41;;;;;;;7.53;3.00;;;;;;;;;;4971108;28;25071;-69
2023/07/18 04:26:09;;;;;;;8.57;2.70;;;;;;;;;;4969456;28;25094;-71
2023/07/18 04:28:36;;;;;;;7.30;2.97;;;;;;;;;;4965966;28;25084;-68
2023/07/18 04:31:02;;;;;;;7.30;3.03;;;;;;;;;;4970411;28;25139;-69
2023/07/18 04:33:28;;;;;;;10.60;3.38;;;;;;;;;;4994830;28;25134;-69
2023/07/18 04:35:54;;;;;;;7.47;3.88;;;;;;;;;;4999825;28;25077;-76
2023/07/18 04:38:20;;;;;;;9.45;3.38;;;;;;;;;;4999918;28;25097;-70
2023/07/18 04:40:46;;;;;;;5.80;3.50;;;;;;;;;;4996935;28;25083;-73
2023/07/18 04:43:12;;;;;;;11.55;3.20;;;;;;;;;;4999118;28;25134;-72
2023/07/18 04:45:45;;;;;;;7.80;3.40;;;;;;;;;;4991216;28;25133;-69
2023/07/18 04:48:14;;;;;;;8.35;3.13;;;;;;;;;;4967410;28;25075;-70
2023/07/18 04:50:44;;;;;;;15.00;3.80;;;;;;;;;;4964212;28;25143;-69
2023/07/18 04:53:10;;;;;;;8.48;3.47;;;;;;;;;;4961559;28;25084;-69
2023/07/18 04:55:36;;;;;;;6.93;3.80;;;;;;;;;;4968746;28;25129;-72
2023/07/18 04:58:03;;;;;;;11.88;3.33;;;;;;;;;;4962914;28;25085;-73
2023/07/18 05:00:29;;;;;;;5.82;3.38;;;;;;;;;;4988897;28;25084;-68
2023/07/18 05:02:55;;;;;;;10.88;3.55;;;;;;;;;;5002552;28;25056;-70
2023/07/18 05:05:21;;;;;;;10.05;3.08;;;;;;;;;;4987308;28;25078;-71
2023/07/18 05:07:47;;;;;;;14.77;3.58;;;;;;;;;;4986001;28;25149;-67
2023/07/18 05:10:14;;;;;;;13.73;3.60;;;;;;;;;;4986813;28;25063;-70
2023/07/18 05:12:40;;;;;;;6.72;3.17;;;;;;;;;;4982211;28;25072;-67
2023/07/18 05:15:07;;;;;;;7.63;3.20;;;;;;;;;;4984977;28;25083;-70
2023/07/18 05:17:33;;;;;;;11.93;3.28;;;;;;;;;;4983692;28;25097;-72
2023/07/18 05:19:58;;;;;;;10.55;3.38;;;;;;;;;;4985798;28;25090;-70
2023/07/18 05:22:25;;;;;;;10.38;3.35;;;;;;;;;;4985881;28;25076;-68
2023/07/18 05:24:51;;;;;;;7.13;3.58;;;;;;;;;;4983822;28;25070;-70
2023/07/18 05:27:17;;;;;;;9.68;2.97;;;;;;;;;;4986785;28;25110;-68
2023/07/18 05:29:43;;;;;;;8.88;3.22;;;;;;;;;;4983516;28;25061;-70
2023/07/18 05:32:09;;;;;;;9.98;3.53;;;;;;;;;;4984861;28;25064;-67
2023/07/18 05:34:36;;;;;;;9.20;3.63;;;;;;;;;;4980243;28;25089;-69
2023/07/18 05:37:02;;;;;;;8.70;3.10;;;;;;;;;;4966444;28;25075;-69
2023/07/18 05:39:28;;;;;;;6.55;2.97;;;;;;;;;;4966031;28;25080;-69
2023/07/18 05:41:54;;;;;;;16.88;3.85;;;;;;;;;;4970397;28;25110;-70
2023/07/18 05:44:20;;;;;;;11.13;3.88;;;;;;;;;;4964774;28;25060;-68
2023/07/18 05:46:46;;;;;;;17.35;4.90;;;;;;;;;;4965774;28;25112;-70
2023/07/18 05:49:14;;;;;;;13.70;3.60;;;;;;;;;;4963798;28;25061;-70
2023/07/18 05:51:40;;;;;;;9.27;3.42;;;;;;;;;;4968507;28;25075;-68
2023/07/18 05:54:06;;;;;;;10.93;4.43;;;;;;;;;;4986558;28;25057;-68
2023/07/18 05:56:32;;;;;;;8.95;3.47;;;;;;;;;;4985349;28;25061;-68
2023/07/18 05:58:59;;;;;;;12.70;4.00;;;;;;;;;;4990139;28;25062;-69
2023/07/18 06:01:25;;;;;;;13.27;4.65;;;;;;;;;;4989867;28;25154;-66
2023/07/18 06:03:51;;;;;;;17.08;4.72;;;;;;;;;;4987897;28;25072;-67
2023/07/18 06:06:17;;;;;;;10.20;4.40;;;;;;;;;;4991217;28;25075;-68
2023/07/18 06:08:43;;;;;;;18.60;5.50;;;;;;;;;;4986477;28;25061;-66
2023/07/18 06:11:08;;;;;;;13.13;4.20;;;;;;;;;;4988524;28;25076;-67
2023/07/18 06:13:34;;;;;;;15.05;4.75;;;;;;;;;;4988878;28;25158;-70
2023/07/18 06:16:00;;;;;;;16.73;4.82;;;;;;;;;;4985994;28;25053;-72
2023/07/18 06:18:28;;;;;;;24.15;5.80;;;;;;;;;;4983497;28;25138;-68
2023/07/18 06:20:54;;;;;;;13.00;4.97;;;;;;;;;;4982761;28;25069;-71
2023/07/18 06:23:20;;;;;;;16.83;5.20;;;;;;;;;;4985233;28;25060;-73
2023/07/18 06:25:46;;;;;;;14.43;4.63;;;;;;;;;;4980838;28;25065;-70
2023/07/18 06:28:12;;;;;;;18.23;5.15;;;;;;;;;;4975112;28;25098;-72
2023/07/18 06:30:38;;;;;;;12.25;5.10;;;;;;;;;;4987167;28;25080;-70
2023/07/18 06:33:04;;;;;;;16.80;5.47;;;;;;;;;;4969839;28;25055;-69
2023/07/18 06:35:32;;;;;;;22.17;6.72;;;;;;;;;;4966229;28;25077;-67
2023/07/18 06:37:58;;;;;;;20.23;7.22;;;;;;;;;;4972440;28;25070;-68
2023/07/18 06:40:24;;;;;;;28.27;6.88;;;;;;;;;;4972687;28;25060;-68
2023/07/18 06:42:50;;;;;;;17.85;5.90;;;;;;;;;;4984343;28;25063;-68
2023/07/18 06:45:16;;;;;;;19.17;7.63;;;;;;;;;;4990345;28;25099;-66
2023/07/18 06:47:42;;;;;;;17.90;6.57;;;;;;;;;;4984406;28;25072;-71
2023/07/18 06:50:08;;;;;;;21.35;6.53;;;;;;;;;;4969143;28;25102;-69
2023/07/18 06:52:34;;;;;;;22.55;7.22;;;;;;;;;;4975955;28;25067;-69
2023/07/18 06:54:59;;;;;;;22.73;6.78;;;;;;;;;;4980757;28;25063;-67
2023/07/18 06:57:25;;;;;;;18.88;6.70;;;;;;;;;;4988762;28;25085;-70
2023/07/18 06:59:52;;;;;;;20.35;7.22;;;;;;;;;;4973583;28;25077;-70
2023/07/18 07:02:18;;;;;;;22.02;6.80;;;;;;;;;;4965823;28;25058;-68
2023/07/18 07:04:44;;;;;;;17.05;7.15;;;;;;;;;;4963691;28;25143;-71
2023/07/18 07:07:10;;;;;;;19.80;7.70;;;;;;;;;;4961612;28;25086;-68
2023/07/18 07:09:36;;;;;;;21.98;8.15;;;;;;;;;;4963962;28;25084;-70
2023/07/18 07:12:02;;;;;;;23.85;7.20;;;;;;;;;;4977765;28;25079;-68
2023/07/18 07:14:28;;;;;;;19.95;7.53;;;;;;;;;;4971128;28;25066;-68
2023/07/18 07:16:54;;;;;;;26.38;7.65;;;;;;;;;;4977810;28;25066;-69
2023/07/18 07:19:20;;;;;;;21.98;9.15;;;;;;;;;;4974449;28;25080;-69
2023/07/18 07:21:46;;;;;;;30.23;9.38;;;;;;;;;;4971153;28;25101;-67
2023/07/18 07:24:12;;;;;;;26.92;8.30;;;;;;;;;;4993318;28;25075;-70
2023/07/18 07:26:38;;;;;;;31.67;10.25;;;;;;;;;;4989205;28;25082;-66
2023/07/18 07:29:05;;;;;;;29.10;8.63;;;;;;;;;;4975847;28;25052;-66
2023/07/18 07:31:31;;;;;;;24.80;9.50;;;;;;;;;;4970738;28;25077;-70
2023/07/18 07:33:58;;;;;;;18.77;7.93;;;;;;;;;;4974502;28;25221;-70
2023/07/18 07:36:24;;;;;;;23.25;8.98;;;;;;;;;;4971399;28;25080;-67
2023/07/18 07:38:50;;;;;;;23.30;9.40;;;;;;;;;;4980497;28;25127;-66
2023/07/18 07:41:16;;;;;;;26.38;8.48;;;;;;;;;;4967906;28;25117;-65
2023/07/18 07:43:42;;;;;;;18.10;7.88;;;;;;;;;;4975966;28;25051;-66
2023/07/18 07:46:08;;;;;;;21.13;8.95;;;;;;;;;;4974876;28;25075;-68
2023/07/18 07:48:34;;;;;;;24.73;8.45;;;;;;;;;;4963310;28;25084;-68
2023/07/18 07:51:03;;;;;;;21.92;8.73;;;;;;;;;;4984465;28;25061;-68
2023/07/18 07:53:29;;;;;;;19.98;8.55;;;;;;;;;;4991999;28;25072;-67
2023/07/18 07:55:55;;;;;;;14.65;7.57;;;;;;;;;;4988718;28;25147;-67
2023/07/18 07:58:21;;;;;;;20.02;8.65;;;;;;;;;;4989587;28;25118;-67
2023/07/18 08:00:47;;;;;;;20.98;7.50;;;;;;;;;;4971616;28;25140;-66
2023/07/18 08:03:13;;;;;;;20.15;8.40;;;;;;;;;;4994243;28;25087;-66
2023/07/18 08:05:39;;;;;;;16.33;7.03;;;;;;;;;;4992648;28;25083;-68
2023/07/18 08:08:05;;;;;;;20.33;6.30;;;;;;;;;;4987735;28;25060;-65
2023/07/18 08:10:31;;;;;;;13.30;6.43;;;;;;;;;;4984113;28;25071;-68
2023/07/18 08:12:57;;;;;;;16.02;5.38;;;;;;;;;;4982168;28;25085;-66
2023/07/18 08:15:26;;;;;;;14.13;4.90;;;;;;;;;;4984330;28;25061;-65
2023/07/18 08:17:52;;;;;;;14.30;5.20;;;;;;;;;;4982836;28;25065;-68
2023/07/18 08:20:18;;;;;;;12.85;4.15;;;;;;;;;;4981396;28;25150;-66
2023/07/18 08:22:46;;;;;;;15.32;4.60;;;;;;;;;;4970547;28;25148;-67
2023/07/18 08:25:12;;;;;;;12.93;5.82;;;;;;;;;;4969648;28;25054;-66
2023/07/18 08:27:38;;;;;;;17.98;4.15;;;;;;;;;;4989108;28;25068;-68
2023/07/18 08:30:04;;;;;;;13.52;4.20;;;;;;;;;;4970116;28;25063;-68
2023/07/18 08:32:30;;;;;;;14.07;4.38;;;;;;;;;;4985375;28;25107;-68
2023/07/18 08:34:56;;;;;;;14.60;4.45;;;;;;;;;;4985651;28;25065;-66
2023/07/18 08:37:22;;;;;;;13.95;4.55;;;;;;;;;;4987470;28;25056;-66
2023/07/18 08:39:48;;;;;;;12.05;4.10;;;;;;;;;;4990642;28;25118;-67
2023/07/18 08:42:15;;;;;;;12.90;3.88;;;;;;;;;;4989472;28;25070;-68
2023/07/18 08:44:41;;;;;;;15.80;5.10;;;;;;;;;;4988973;28;25074;-66
2023/07/18 08:47:07;;;;;;;12.98;4.85;;;;;;;;;;4984107;28;25059;-67
2023/07/18 08:49:35;;;;;;;12.13;4.72;;;;;;;;;;4984638;28;25082;-67
2023/07/18 08:52:01;;;;;;;16.58;4.65;;;;;;;;;;4984188;28;25106;-66
2023/07/18 08:54:27;;;;;;;13.57;4.60;;;;;;;;;;4967209;28;25060;-66
2023/07/18 08:56:54;;;;;;;11.95;4.10;;;;;;;;;;4966267;28;25079;-66
2023/07/18 08:59:20;;;;;;;10.85;4.40;;;;;;;;;;4967031;28;25094;-68
2023/07/18 09:01:47;;;;;;;8.57;3.97;;;;;;;;;;4973387;28;25109;-64
2023/07/18 09:04:13;;;;;;;13.05;3.92;;;;;;;;;;4981022;28;25055;-65
2023/07/18 09:06:47;;;;;;;11.82;3.75;;;;;;;;;;4991526;28;25073;-66
2023/07/18 09:09:17;;;;;;;12.95;3.70;;;;;;;;;;4990196;28;25156;-66
2023/07/18 09:11:56;;;;;;;9.70;3.33;;;;;;;;;;4988085;28;25098;-65
2023/07/18 09:14:26;;;;;;;10.18;3.63;;;;;;;;;;4990341;28;25064;-67
2023/07/18 09:16:53;;;;;;;13.02;4.00;;;;;;;;;;4967785;28;25147;-65
2023/07/18 09:19:19;;;;;;;13.38;3.28;;;;;;;;;;4978467;28;25155;-65
2023/07/18 09:21:45;;;;;;;8.77;3.60;;;;;;;;;;4994599;28;25074;-67
2023/07/18 09:24:12;;;;;;;6.88;3.15;;;;;;;;;;4989507;28;25116;-64
2023/07/18 09:26:39;;;;;;;9.18;2.97;;;;;;;;;;4990771;28;25106;-65
2023/07/18 09:29:11;;;;;;;10.10;4.20;;;;;;;;;;4992665;28;25069;-65
2023/07/18 09:31:38;;;;;;;8.55;2.88;;;;;;;;;;4986943;28;25114;-65
2023/07/18 09:34:10;;;;;;;9.50;3.55;;;;;;;;;;4986494;28;25051;-63
2023/07/18 09:36:36;;;;;;;9.38;3.22;;;;;;;;;;4985416;28;25141;-66
2023/07/18 09:39:03;;;;;;;7.72;2.58;;;;;;;;;;4985322;28;25054;-65
2023/07/18 09:41:30;;;;;;;9.50;2.70;;;;;;;;;;4985031;28;25064;-65
2023/07/18 09:43:57;;;;;;;6.13;2.55;;;;;;;;;;4986012;28;25145;-67
2023/07/18 09:46:23;;;;;;;14.20;3.40;;;;;;;;;;4984545;28;25084;-65
2023/07/18 09:48:49;;;;;;;8.73;2.30;;;;;;;;;;4983340;28;25073;-66
2023/07/18 09:51:15;;;;;;;6.38;2.38;;;;;;;;;;4982912;28;25064;-65
2023/07/18 09:53:48;;;;;;;4.10;2.00;;;;;;;;;;4984840;28;25144;-66
2023/07/18 09:56:15;;;;;;;9.18;3.30;;;;;;;;;;4984158;28;25063;-67
2023/07/18 09:58:42;;;;;;;9.02;2.95;;;;;;;;;;4984961;28;25100;-65
2023/07/18 10:01:10;;;;;;;7.97;2.33;;;;;;;;;;4985132;28;25144;-68
2023/07/18 10:03:38;;;;;;;9.40;2.33;;;;;;;;;;4987183;28;25128;-65
2023/07/18 10:06:06;;;;;;;5.43;2.42;;;;;;;;;;4987707;28;25084;-66
2023/07/18 10:08:32;;;;;;;8.90;2.45;;;;;;;;;;4988156;28;25065;-66
2023/07/18 10:11:07;;;;;;;6.03;2.25;;;;;;;;;;4990150;28;25046;-66
2023/07/18 10:13:41;;;;;;;7.05;2.35;;;;;;;;;;4987142;28;25136;-65
2023/07/18 10:16:13;;;;;;;7.97;2.33;;;;;;;;;;4974041;28;25063;-66
2023/07/18 10:18:46;;;;;;;6.72;2.05;;;;;;;;;;4977650;28;25074;-65
2023/07/18 10:21:13;;;;;;;7.65;2.20;;;;;;;;;;4969663;28;25061;-66
2023/07/18 10:23:43;;;;;;;4.18;1.75;;;;;;;;;;4974096;28;25046;-65
2023/07/18 10:26:09;;;;;;;9.40;2.97;;;;;;;;;;4974353;28;25058;-64
2023/07/18 10:28:42;;;;;;;13.38;3.08;;;;;;;;;;4973639;28;25057;-65
2023/07/18 10:31:08;;;;;;;7.97;2.92;;;;;;;;;;4967834;28;25060;-64
2023/07/18 10:33:34;;;;;;;3.53;1.30;;;;;;;;;;4978770;28;25167;-66
2023/07/18 10:36:00;;;;;;;8.73;1.60;;;;;;;;;;4972807;28;25062;-67
2023/07/18 10:38:34;;;;;;;5.75;1.90;;;;;;;;;;4967142;28;25059;-66
2023/07/18 10:41:01;;;;;;;5.97;1.65;;;;;;;;;;4978280;28;25074;-67
2023/07/18 10:43:27;;;;;;;4.85;1.45;;;;;;;;;;4977130;28;25064;-65
2023/07/18 10:45:53;;;;;;;4.40;1.73;;;;;;;;;;4975422;28;25145;-65
2023/07/18 10:48:20;;;;;;;5.70;1.77;;;;;;;;;;4976071;28;25070;-66
2023/07/18 10:50:47;;;;;;;6.35;1.67;;;;;;;;;;4987779;28;25062;-65
2023/07/18 10:53:14;;;;;;;6.03;1.73;;;;;;;;;;4995910;28;25066;-65
2023/07/18 10:55:40;;;;;;;6.18;1.60;;;;;;;;;;4992987;28;25047;-66
2023/07/18 10:58:11;;;;;;;2.95;1.42;;;;;;;;;;4991526;28;25128;-64
2023/07/18 11:00:37;;;;;;;8.60;1.70;;;;;;;;;;4968338;28;25053;-66
2023/07/18 11:03:03;;;;;;;9.63;3.22;;;;;;;;;;4968076;28;25080;-67
2023/07/18 11:05:29;;;;;;;7.07;2.58;;;;;;;;;;4975494;28;25076;-65
2023/07/18 11:07:55;;;;;;;6.72;1.88;;;;;;;;;;4987892;28;25055;-65
2023/07/18 11:10:21;;;;;;;3.80;1.45;;;;;;;;;;4995868;28;25116;-65
2023/07/18 11:12:47;;;;;;;5.45;1.75;;;;;;;;;;4994018;28;25093;-65
2023/07/18 11:15:13;;;;;;;3.13;1.63;;;;;;;;;;4973525;28;25067;-64
2023/07/18 11:17:39;;;;;;;3.05;1.60;;;;;;;;;;4979860;28;25059;-64
2023/07/18 11:20:06;;;;;;;4.18;1.77;;;;;;;;;;4990113;28;25063;-65
2023/07/18 11:22:32;;;;;;;6.50;1.98;;;;;;;;;;4990356;28;25094;-65
2023/07/18 11:24:58;;;;;;;4.45;1.92;;;;;;;;;;4994318;28;25071;-65
2023/07/18 11:27:25;;;;;;;6.93;1.52;;;;;;;;;;4968887;28;25154;-63
2023/07/18 11:30:03;;;;;;;1.98;1.02;;;;;;;;;;4967814;28;25143;-65
2023/07/18 11:32:39;;;;;;;4.80;1.30;;;;;;;;;;4966219;28;25075;-66
2023/07/18 11:35:06;;;;;;;6.03;1.70;;;;;;;;;;4977863;28;25043;-65
2023/07/18 11:37:33;;;;;;;3.75;1.63;;;;;;;;;;4987352;28;25090;-66
2023/07/18 11:40:00;;;;;;;10.77;2.65;;;;;;;;;;4995618;28;25064;-65
2023/07/18 11:42:42;;;;;;;4.65;1.83;;;;;;;;;;4986709;28;25081;-65
2023/07/18 11:45:09;;;;;;;3.92;1.90;;;;;;;;;;4987255;28;25064;-65
2023/07/18 11:47:37;;;;;;;9.30;2.05;;;;;;;;;;4974515;28;25071;-64
2023/07/18 11:50:08;;;;;;;4.80;1.60;;;;;;;;;;4967845;28;25068;-64
2023/07/18 11:52:34;;;;;;;4.03;2.13;;;;;;;;;;4966444;28;25164;-64
2023/07/18 11:55:00;;;;;;;8.75;1.80;;;;;;;;;;4967927;28;25121;-66
2023/07/18 11:57:26;;;;;;;5.85;2.25;;;;;;;;;;4966662;28;25154;-64
2023/07/18 11:59:52;;;;;;;3.80;1.35;;;;;;;;;;4960485;28;25131;-65
2023/07/18 12:02:19;;;;;;;6.97;1.83;;;;;;;;;;4966500;28;25092;-67
2023/07/18 12:04:45;;;;;;;3.35;1.33;;;;;;;;;;4960785;28;25115;-66
2023/07/18 12:07:11;;;;;;;10.27;2.53;;;;;;;;;;4966224;28;25096;-64
2023/07/18 12:09:37;;;;;;;5.45;1.42;;;;;;;;;;4966898;28;25092;-65
2023/07/18 12:12:03;;;;;;;7.50;1.80;;;;;;;;;;4980470;28;25065;-65
2023/07/18 12:14:29;;;;;;;5.57;1.33;;;;;;;;;;5003905;28;25068;-65
2023/07/18 12:16:55;;;;;;;2.30;1.10;;;;;;;;;;4992261;28;25069;-66
2023/07/18 12:19:22;;;;;;;2.45;1.35;;;;;;;;;;4965945;28;25108;-67
2023/07/18 12:21:51;;;;;;;4.65;1.58;;;;;;;;;;5001406;28;25088;-67
2023/07/18 12:24:18;;;;;;;5.07;1.50;;;;;;;;;;4988169;28;25066;-67
2023/07/18 12:26:45;;;;;;;6.82;1.92;;;;;;;;;;4963210;28;25117;-66
2023/07/18 12:29:13;;;;;;;7.07;1.40;;;;;;;;;;4977486;28;25082;-65
2023/07/18 12:31:43;;;;;;;5.78;1.70;;;;;;;;;;4970907;28;25147;-63
2023/07/18 12:34:09;;;;;;;6.70;1.77;;;;;;;;;;4968314;28;25153;-65
2023/07/18 12:36:35;;;;;;;5.25;1.23;;;;;;;;;;4990697;28;25051;-64
2023/07/18 12:39:00;;;;;;;3.97;1.13;;;;;;;;;;4989413;28;25096;-65
2023/07/18 12:41:26;;;;;;;5.68;1.38;;;;;;;;;;4970362;28;25082;-64
2023/07/18 12:43:52;;;;;;;1.95;1.00;;;;;;;;;;4966136;28;25073;-66
2023/07/18 12:46:22;;;;;;;5.97;1.52;;;;;;;;;;4975532;28;25070;-66
2023/07/18 12:48:48;;;;;;;5.00;1.23;;;;;;;;;;4970917;28;25056;-66
2023/07/18 12:51:15;;;;;;;5.18;1.50;;;;;;;;;;4974170;28;25085;-65
2023/07/18 12:53:41;;;;;;;3.30;1.08;;;;;;;;;;4966326;28;25098;-66
2023/07/18 12:56:07;;;;;;;3.28;1.33;;;;;;;;;;4968575;28;25082;-64
2023/07/18 12:58:32;;;;;;;4.07;1.27;;;;;;;;;;4971073;28;25071;-64
2023/07/18 13:00:58;;;;;;;3.42;1.23;;;;;;;;;;4964876;28;25115;-64
2023/07/18 13:03:27;;;;;;;6.25;1.50;;;;;;;;;;4970521;28;25075;-64
2023/07/18 13:05:53;;;;;;;2.70;1.15;;;;;;;;;;4965648;28;25061;-70
2023/07/18 13:08:18;;;;;;;6.90;1.23;;;;;;;;;;4966772;28;25155;-66
2023/07/18 13:10:45;;;;;;;4.03;0.98;;;;;;;;;;4967019;28;25124;-66
2023/07/18 13:13:11;;;;;;;3.58;1.10;;;;;;;;;;4968651;28;25076;-64
2023/07/18 13:15:37;;;;;;;2.08;0.88;;;;;;;;;;4997115;28;25063;-63
2023/07/18 13:18:03;;;;;;;2.28;0.80;;;;;;;;;;4991656;28;25066;-64
2023/07/18 13:20:29;;;;;;;5.10;1.10;;;;;;;;;;4994965;28;25073;-65
2023/07/18 13:22:55;;;;;;;4.22;1.05;;;;;;;;;;4984343;28;25139;-65
2023/07/18 13:25:21;;;;;;;5.55;1.02;;;;;;;;;;4988995;28;25087;-64
2023/07/18 13:27:47;;;;;;;3.10;0.90;;;;;;;;;;4965077;28;25059;-65
2023/07/18 13:30:13;;;;;;;5.32;1.40;;;;;;;;;;4986496;28;25081;-64
2023/07/18 13:32:39;;;;;;;1.80;0.90;;;;;;;;;;4995897;28;25076;-66
2023/07/18 13:35:06;;;;;;;2.70;1.00;;;;;;;;;;4991849;28;25137;-64
2023/07/18 13:37:32;;;;;;;2.38;1.02;;;;;;;;;;4993916;28;25070;-65
2023/07/18 13:39:58;;;;;;;2.25;0.80;;;;;;;;;;4976207;28;25077;-64
2023/07/18 13:42:24;;;;;;;4.30;1.52;;;;;;;;;;4968231;28;25062;-64
2023/07/18 13:44:50;;;;;;;2.78;1.23;;;;;;;;;;4969779;28;25079;-65
2023/07/18 13:47:17;;;;;;;4.72;0.80;;;;;;;;;;4977774;28;25092;-66
2023/07/18 13:49:43;;;;;;;4.00;0.85;;;;;;;;;;4988623;28;25083;-64
2023/07/18 13:52:09;;;;;;;2.15;0.80;;;;;;;;;;4990903;28;25127;-65
2023/07/18 13:54:35;;;;;;;2.67;0.98;;;;;;;;;;4982275;28;25116;-65
2023/07/18 13:57:01;;;;;;;5.65;1.13;;;;;;;;;;4995564;28;25051;-64
2023/07/18 13:59:27;;;;;;;1.40;0.85;;;;;;;;;;4991837;28;25060;-66
2023/07/18 14:01:53;;;;;;;2.33;1.02;;;;;;;;;;4991679;28;25226;-64
2023/07/18 14:04:19;;;;;;;5.78;1.30;;;;;;;;;;4972742;28;25174;-65
2023/07/18 14:06:45;;;;;;;2.40;0.90;;;;;;;;;;4994769;28;25105;-65
2023/07/18 14:09:11;;;;;;;3.10;0.98;;;;;;;;;;4995832;28;25084;-64
2023/07/18 14:11:37;;;;;;;3.58;1.10;;;;;;;;;;4984697;28;25077;-63
2023/07/18 14:14:03;;;;;;;2.47;1.00;;;;;;;;;;4996049;28;25065;-64
2023/07/18 14:16:28;;;;;;;2.85;1.30;;;;;;;;;;4997571;28;25156;-63
2023/07/18 14:18:56;;;;;;;4.03;0.80;;;;;;;;;;4975414;28;25131;-66
2023/07/18 14:21:22;;;;;;;2.10;0.90;;;;;;;;;;4979008;28;25047;-67
2023/07/18 14:23:48;;;;;;;2.47;0.75;;;;;;;;;;4976842;28;25119;-65
2023/07/18 14:26:14;;;;;;;4.15;1.15;;;;;;;;;;4969820;28;25254;-64
2023/07/18 14:28:40;;;;;;;5.88;1.00;;;;;;;;;;4979419;28;25076;-65
2023/07/18 14:31:06;;;;;;;2.47;0.88;;;;;;;;;;4969790;28;25058;-63
2023/07/18 14:33:32;;;;;;;1.50;0.60;;;;;;;;;;4989259;28;25095;-64